Time;durP1;ratioP1;P1;durP2;ratioP2;P2;SDS_P1;SDS_P2;PMS_P1;PMS_P2;Temp;Humidity;BMP_temperature;BMP_pressure;BME280_temperature;BME280_humidity;BME280_pressure;Samples;Min_cycle;Max_cycle;Signal;HPM_P1;HPM_P2
2022/09/28 00:01:12;;;;;;;7.53;4.43;;;7.20;99.90;;;;;;6274581;22;20015;-88
2022/09/28 00:03:38;;;;;;;8.52;4.68;;;7.20;99.90;;;;;;6274572;22;20007;-88
2022/09/28 00:06:10;;;;;;;8.23;4.18;;;7.10;99.90;;;;;;6273172;22;20437;-89
2022/09/28 00:08:36;;;;;;;9.48;4.20;;;7.10;99.90;;;;;;6272874;22;20018;-89
2022/09/28 00:11:03;;;;;;;6.93;4.50;;;7.10;99.90;;;;;;6274313;22;20091;-88
2022/09/28 00:13:31;;;;;;;8.38;4.00;;;7.10;99.90;;;;;;6273324;22;20022;-89
2022/09/28 00:15:59;;;;;;;6.75;3.80;;;7.10;99.90;;;;;;6248051;22;20011;-89
2022/09/28 00:18:24;;;;;;;6.32;4.28;;;7.10;99.90;;;;;;6272374;22;20023;-88
2022/09/28 00:21:03;;;;;;;13.40;4.47;;;7.20;99.90;;;;;;6273807;22;20016;-89
2022/09/28 00:23:29;;;;;;;11.35;4.35;;;7.00;99.90;;;;;;6272854;22;20047;-88
2022/09/28 00:25:54;;;;;;;8.98;4.30;;;7.10;99.90;;;;;;6273516;22;20019;-88
2022/09/28 00:28:20;;;;;;;8.57;3.95;;;7.10;99.90;;;;;;6274300;22;20047;-88
2022/09/28 00:30:46;;;;;;;9.65;4.53;;;7.00;99.90;;;;;;6272497;22;20047;-88
2022/09/28 00:33:11;;;;;;;6.57;3.38;;;7.00;99.90;;;;;;6247265;22;20018;-88
2022/09/28 00:35:37;;;;;;;8.70;3.72;;;7.30;99.90;;;;;;6273911;22;20008;-88
2022/09/28 00:38:02;;;;;;;8.93;4.25;;;7.00;99.90;;;;;;6273847;22;20251;-88
2022/09/28 00:40:28;;;;;;;10.40;4.20;;;7.00;99.90;;;;;;6273567;22;20083;-89
2022/09/28 00:42:54;;;;;;;8.27;4.60;;;7.10;99.90;;;;;;6272511;22;20022;-88
2022/09/28 00:45:24;;;;;;;7.60;4.80;;;7.00;99.90;;;;;;6274282;22;20022;-88
2022/09/28 00:47:56;;;;;;;7.88;4.55;;;7.00;99.90;;;;;;6246756;22;20007;-89
2022/09/28 00:50:36;;;;;;;6.57;4.30;;;7.10;99.90;;;;;;6271656;22;20012;-88
2022/09/28 00:53:13;;;;;;;12.88;5.22;;;7.10;99.90;;;;;;6272133;22;20464;-88
2022/09/28 00:55:41;;;;;;;10.48;5.00;;;7.10;99.90;;;;;;6274449;22;20018;-88
2022/09/28 00:58:11;;;;;;;6.80;4.20;;;7.10;99.90;;;;;;6246644;22;20023;-88
2022/09/28 01:00:39;;;;;;;8.48;4.63;;;7.00;99.90;;;;;;6246939;22;20008;-88
2022/09/28 01:03:06;;;;;;;9.88;4.38;;;7.00;99.90;;;;;;6246785;22;20011;-88
2022/09/28 01:05:33;;;;;;;7.93;4.47;;;7.00;99.90;;;;;;6275249;22;20034;-88
2022/09/28 01:08:00;;;;;;;11.00;4.47;;;7.00;99.90;;;;;;6274072;22;20008;-88
2022/09/28 01:10:29;;;;;;;8.20;5.22;;;7.00;99.90;;;;;;6274171;22;20019;-88
2022/09/28 01:12:54;;;;;;;7.85;4.75;;;7.00;99.90;;;;;;6274555;22;20436;-88
2022/09/28 01:15:23;;;;;;;10.05;4.63;;;6.90;99.90;;;;;;6273450;22;20015;-88
2022/09/28 01:17:59;;;;;;;7.03;4.20;;;6.90;99.90;;;;;;6274320;22;20016;-88
2022/09/28 01:20:52;;;;;;;7.68;4.22;;;6.90;99.90;;;;;;6275534;22;20433;-88
2022/09/28 01:23:49;;;;;;;8.85;5.10;;;6.90;99.90;;;;;;6274203;22;20081;-88
2022/09/28 01:26:39;;;;;;;9.23;4.55;;;6.80;99.90;;;;;;6273728;22;20534;-88
2022/09/28 01:29:16;;;;;;;11.50;5.15;;;6.80;99.90;;;;;;6248403;22;20024;-88
2022/09/28 01:31:49;;;;;;;9.52;4.95;;;6.80;99.90;;;;;;6273818;22;20047;-89
2022/09/28 01:34:27;;;;;;;12.02;5.40;;;6.80;99.90;;;;;;6273490;22;20332;-88
2022/09/28 01:36:55;;;;;;;18.55;5.65;;;6.80;99.90;;;;;;6273847;22;20015;-88
2022/09/28 01:39:31;;;;;;;8.55;5.00;;;6.70;99.90;;;;;;6275538;22;20332;-88
2022/09/28 01:42:03;;;;;;;9.68;5.22;;;6.70;99.90;;;;;;6273343;22;20026;-89
2022/09/28 01:44:31;;;;;;;8.00;4.97;;;6.70;99.90;;;;;;6273511;22;20061;-88
2022/09/28 01:47:03;;;;;;;7.93;4.90;;;6.70;99.90;;;;;;6273318;22;20012;-88
2022/09/28 01:49:39;;;;;;;9.15;5.75;;;6.70;99.90;;;;;;6272364;22;20020;-88
2022/09/28 01:52:12;;;;;;;8.68;4.63;;;6.60;99.90;;;;;;6273645;22;20007;-88
2022/09/28 01:54:44;;;;;;;10.13;5.30;;;6.60;99.90;;;;;;6273637;22;20012;-88
2022/09/28 01:57:27;;;;;;;10.90;5.07;;;6.60;99.90;;;;;;6273679;22;20049;-88
2022/09/28 02:00:07;;;;;;;10.25;5.30;;;6.60;99.90;;;;;;6275270;22;20019;-88
2022/09/28 02:02:42;;;;;;;10.82;5.55;;;6.60;99.90;;;;;;6273541;22;20012;-88
2022/09/28 02:05:14;;;;;;;9.00;5.03;;;6.50;99.90;;;;;;6273466;22;20016;-88
2022/09/28 02:08:07;;;;;;;8.98;5.25;;;6.50;99.90;;;;;;6273676;22;20019;-88
2022/09/28 02:10:42;;;;;;;9.38;5.18;;;6.50;99.90;;;;;;6262555;22;20051;-88
2022/09/28 02:13:17;;;;;;;11.98;5.22;;;6.50;99.90;;;;;;6248109;22;20015;-88
2022/09/28 02:15:47;;;;;;;8.95;5.63;;;6.50;99.90;;;;;;6275078;22;20023;-88
2022/09/28 02:18:13;;;;;;;9.13;5.40;;;6.50;99.90;;;;;;6275397;22;20381;-88
2022/09/28 02:20:44;;;;;;;11.48;5.50;;;6.50;99.90;;;;;;6274919;22;20016;-88
2022/09/28 02:23:10;;;;;;;7.75;5.07;;;6.60;99.90;;;;;;6273104;22;20016;-88
2022/09/28 02:25:41;;;;;;;21.25;7.15;;;7.10;99.90;;;;;;6247418;22;20452;-88
2022/09/28 02:28:10;;;;;;;19.00;7.18;;;6.70;99.90;;;;;;6274994;22;20014;-88
2022/09/28 02:30:39;;;;;;;32.55;7.65;;;6.70;99.90;;;;;;6272975;22;20019;-87
2022/09/28 02:33:15;;;;;;;67.25;10.95;;;6.80;99.90;;;;;;6274611;22;20020;-87
2022/09/28 02:35:41;;;;;;;55.40;9.68;;;6.90;99.90;;;;;;6272889;22;20081;-88
2022/09/28 02:38:09;;;;;;;43.33;9.15;;;6.90;99.90;;;;;;6272760;22;20042;-88
2022/09/28 02:40:36;;;;;;;61.75;11.15;;;7.00;99.90;;;;;;6246927;22;20018;-88
2022/09/28 02:43:54;;;;;;;122.82;12.32;;;7.00;99.90;;;;;;6273126;22;20440;-88
2022/09/28 02:46:33;;;;;;;132.38;13.98;;;7.10;99.90;;;;;;6155128;23;20143;-88
2022/09/28 02:49:31;;;;;;;130.27;13.90;;;7.10;99.90;;;;;;6130299;23;20095;-88
2022/09/28 02:52:18;;;;;;;78.80;12.35;;;7.10;99.90;;;;;;6155441;23;20044;-88
2022/09/28 02:54:58;;;;;;;191.57;16.25;;;7.10;99.90;;;;;;6180439;23;20044;-88
2022/09/28 02:57:35;;;;;;;76.90;11.75;;;7.20;99.90;;;;;;6155439;23;20593;-87
2022/09/28 03:00:20;;;;;;;76.70;10.57;;;7.20;99.90;;;;;;6154673;23;20036;-88
2022/09/28 03:03:00;;;;;;;30.90;9.20;;;7.20;99.90;;;;;;6130900;23;20013;-88
2022/09/28 03:05:50;;;;;;;56.75;10.27;;;7.20;99.90;;;;;;6180101;23;20013;-88
2022/09/28 03:08:39;;;;;;;178.63;13.98;;;7.20;99.90;;;;;;6155580;23;20370;-88
2022/09/28 03:11:42;;;;;;;145.38;13.23;;;7.20;99.90;;;;;;6180111;23;20017;-87
2022/09/28 03:14:09;;;;;;;137.73;12.65;;;7.20;99.90;;;;;;6155145;23;20017;-88
2022/09/28 03:16:35;;;;;;;138.02;11.38;;;7.10;99.90;;;;;;6185060;22;20033;-87
2022/09/28 03:19:01;;;;;;;78.93;9.77;;;7.00;99.90;;;;;;6274406;22;20460;-88
2022/09/28 03:21:26;;;;;;;130.85;11.27;;;7.00;99.90;;;;;;6272504;22;20034;-88
2022/09/28 03:23:52;;;;;;;122.03;10.73;;;6.90;99.90;;;;;;6272279;22;20314;-88
2022/09/28 03:26:18;;;;;;;142.45;12.20;;;6.90;99.90;;;;;;6272142;22;20019;-88
2022/09/28 03:28:44;;;;;;;49.13;8.88;;;6.90;99.90;;;;;;6246143;22;20094;-88
2022/09/28 03:31:09;;;;;;;128.75;12.20;;;6.90;99.90;;;;;;6246333;22;20046;-88
2022/09/28 03:33:35;;;;;;;108.55;10.43;;;6.90;99.90;;;;;;6246633;22;20015;-87
2022/09/28 03:36:01;;;;;;;98.32;10.38;;;6.90;99.90;;;;;;6272117;22;20016;-88
2022/09/28 03:38:26;;;;;;;83.72;8.98;;;6.90;99.90;;;;;;6271711;22;20321;-88
2022/09/28 03:40:53;;;;;;;54.72;9.20;;;6.90;99.90;;;;;;6272166;22;20095;-87
2022/09/28 03:43:19;;;;;;;75.43;9.40;;;6.90;99.90;;;;;;6272584;22;20023;-88
2022/09/28 03:45:56;;;;;;;111.90;9.50;;;6.90;99.90;;;;;;6273834;22;20016;-88
2022/09/28 03:48:27;;;;;;;99.32;9.70;;;6.90;99.90;;;;;;6272663;22;20016;-88
2022/09/28 03:50:54;;;;;;;157.77;11.93;;;6.90;99.90;;;;;;6274082;22;20162;-88
2022/09/28 03:53:20;;;;;;;69.57;9.45;;;6.80;99.90;;;;;;6274389;22;20026;-88
2022/09/28 03:55:46;;;;;;;53.40;8.30;;;6.80;99.90;;;;;;6246817;22;20436;-88
2022/09/28 03:58:12;;;;;;;188.30;13.25;;;7.50;99.90;;;;;;6271476;22;20081;-88
2022/09/28 04:00:38;;;;;;;122.22;11.15;;;6.80;99.90;;;;;;6274762;22;20332;-88
2022/09/28 04:03:04;;;;;;;112.75;10.23;;;6.70;99.90;;;;;;6272138;22;20012;-88
2022/09/28 04:05:29;;;;;;;141.73;10.82;;;6.70;99.90;;;;;;6272667;22;20030;-87
2022/09/28 04:07:56;;;;;;;99.15;10.82;;;6.80;99.90;;;;;;6272094;22;20397;-87
2022/09/28 04:10:23;;;;;;;128.85;11.88;;;6.60;99.90;;;;;;6272456;22;20011;-88
2022/09/28 04:12:49;;;;;;;40.22;8.80;;;6.60;99.90;;;;;;6273457;22;20086;-88
2022/09/28 04:15:15;;;;;;;50.80;9.40;;;6.60;99.90;;;;;;6274032;22;20441;-88
2022/09/28 04:17:41;;;;;;;154.07;11.70;;;7.00;99.90;;;;;;6272067;22;20098;-88
2022/09/28 04:20:07;;;;;;;125.07;12.07;;;6.60;99.90;;;;;;6246696;22;20015;-88
2022/09/28 04:22:36;;;;;;;71.40;10.40;;;6.70;99.90;;;;;;6273837;22;20464;-88
2022/09/28 04:25:03;;;;;;;57.28;9.85;;;6.70;99.90;;;;;;6272344;22;20007;-88
2022/09/28 04:30:13;;;;;;;64.18;9.32;;;6.70;99.90;;;;;;6272717;22;20042;-88
2022/09/28 04:32:39;;;;;;;142.68;12.68;;;6.80;99.90;;;;;;6272235;22;20155;-88
2022/09/28 04:35:05;;;;;;;35.30;7.80;;;6.80;99.90;;;;;;6274121;22;20448;-88
2022/09/28 04:37:31;;;;;;;82.15;10.85;;;6.80;99.90;;;;;;6272832;22;20011;-88
2022/09/28 04:39:57;;;;;;;136.48;12.88;;;6.80;99.90;;;;;;6273850;22;20004;-88
2022/09/28 04:42:22;;;;;;;65.70;10.02;;;6.80;99.90;;;;;;6246201;22;20015;-88
2022/09/28 04:44:48;;;;;;;58.10;14.77;;;6.80;99.90;;;;;;6274446;22;20012;-88
2022/09/28 04:47:13;;;;;;;71.82;10.68;;;6.80;99.90;;;;;;6274218;22;20101;-89
2022/09/28 04:49:39;;;;;;;101.72;12.40;;;6.80;99.90;;;;;;6273499;22;20054;-88
2022/09/28 04:52:05;;;;;;;160.85;13.93;;;6.80;99.90;;;;;;6274521;22;20012;-87
2022/09/28 04:54:31;;;;;;;101.50;11.20;;;6.80;99.90;;;;;;6274169;22;20022;-88
2022/09/28 04:56:57;;;;;;;194.82;15.95;;;6.80;99.90;;;;;;6272543;22;20019;-88
2022/09/28 04:59:23;;;;;;;88.57;11.75;;;6.90;99.90;;;;;;6272703;22;20011;-86
2022/09/28 05:01:48;;;;;;;120.50;12.15;;;6.80;99.90;;;;;;6277279;22;20361;-89
2022/09/28 05:04:15;;;;;;;122.18;12.05;;;6.70;99.90;;;;;;6278153;22;20020;-88
2022/09/28 05:06:40;;;;;;;72.85;11.45;;;6.70;99.90;;;;;;6278020;22;20344;-88
2022/09/28 05:09:08;;;;;;;105.22;12.32;;;6.70;99.90;;;;;;6277710;22;20012;-86
2022/09/28 05:11:33;;;;;;;144.82;13.93;;;6.70;99.90;;;;;;6278165;22;20015;-88
2022/09/28 05:13:59;;;;;;;102.95;12.00;;;6.70;99.90;;;;;;6279591;22;20012;-87
2022/09/28 05:16:25;;;;;;;109.35;12.50;;;6.60;99.90;;;;;;6278706;22;20011;-86
2022/09/28 05:18:57;;;;;;;45.10;9.10;;;6.60;99.90;;;;;;6251535;22;20019;-88
2022/09/28 05:21:25;;;;;;;73.60;11.23;;;6.60;99.90;;;;;;6279204;22;20205;-88
2022/09/28 05:23:51;;;;;;;137.63;12.10;;;6.60;99.90;;;;;;6252125;22;20026;-88
2022/09/28 05:26:17;;;;;;;84.53;11.32;;;6.60;99.90;;;;;;6252365;22;20072;-88
2022/09/28 05:28:43;;;;;;;104.40;11.57;;;6.60;99.90;;;;;;6280059;22;20337;-88
2022/09/28 05:31:09;;;;;;;148.50;11.57;;;6.60;99.90;;;;;;6252954;22;20015;-89
2022/09/28 05:33:36;;;;;;;74.47;10.50;;;6.60;99.90;;;;;;6279794;22;20090;-87
2022/09/28 05:36:02;;;;;;;120.00;12.52;;;6.60;99.90;;;;;;6276981;22;20012;-88
2022/09/28 05:38:29;;;;;;;40.40;9.02;;;6.50;99.90;;;;;;6279343;22;20003;-87
2022/09/28 05:40:55;;;;;;;97.75;11.05;;;6.60;99.90;;;;;;6278784;22;20065;-90
2022/09/28 05:43:21;;;;;;;85.95;10.05;;;6.60;99.90;;;;;;6278922;22;20042;-86
2022/09/28 05:45:47;;;;;;;53.60;10.25;;;6.60;99.90;;;;;;6250473;22;20008;-87
2022/09/28 05:48:13;;;;;;;173.77;14.75;;;6.60;99.90;;;;;;6276206;22;20034;-88
2022/09/28 05:50:38;;;;;;;97.97;11.77;;;6.60;99.90;;;;;;6279263;22;20010;-86
2022/09/28 05:53:07;;;;;;;139.82;12.73;;;6.60;99.90;;;;;;6280383;22;20087;-87
2022/09/28 05:55:33;;;;;;;91.90;10.85;;;6.60;99.90;;;;;;6278115;22;20023;-86
2022/09/28 05:58:00;;;;;;;87.38;10.90;;;6.60;99.90;;;;;;6276940;22;20524;-87
2022/09/28 06:00:28;;;;;;;57.10;10.82;;;6.50;99.90;;;;;;6277415;22;20015;-87
2022/09/28 06:02:56;;;;;;;40.85;8.80;;;6.60;99.90;;;;;;6251074;22;20397;-87
2022/09/28 06:05:22;;;;;;;82.13;9.65;;;6.80;99.90;;;;;;6279569;22;20445;-86
2022/09/28 06:07:47;;;;;;;51.88;8.80;;;6.60;99.90;;;;;;6280333;22;20011;-87
2022/09/28 06:10:13;;;;;;;36.33;9.40;;;6.80;99.90;;;;;;6280429;22;20023;-86
2022/09/28 06:12:40;;;;;;;39.30;10.60;;;6.70;99.90;;;;;;6280159;22;20481;-88
2022/09/28 06:15:06;;;;;;;47.70;13.38;;;6.70;99.90;;;;;;6279038;22;20051;-87
2022/09/28 06:17:31;;;;;;;41.95;8.45;;;6.70;99.90;;;;;;6278303;22;20011;-88
2022/09/28 06:19:57;;;;;;;49.80;10.35;;;6.80;99.90;;;;;;6277732;22;20023;-88
2022/09/28 06:22:23;;;;;;;55.70;10.15;;;6.80;99.90;;;;;;6279930;22;20020;-94
2022/09/28 06:24:49;;;;;;;74.88;11.43;;;6.80;99.90;;;;;;6279682;22;20524;-89
2022/09/28 06:27:14;;;;;;;50.25;9.45;;;6.80;99.90;;;;;;6279723;22;20357;-89
2022/09/28 06:29:40;;;;;;;76.05;10.88;;;7.00;99.90;;;;;;6279258;22;20063;-90
2022/09/28 06:32:06;;;;;;;88.65;10.25;;;6.90;99.90;;;;;;6281139;22;20550;-87
2022/09/28 06:34:33;;;;;;;77.38;9.10;;;6.90;99.90;;;;;;6247317;22;20112;-86
2022/09/28 06:36:59;;;;;;;61.88;9.57;;;6.90;99.90;;;;;;6251930;22;20022;-85
2022/09/28 06:39:25;;;;;;;42.85;9.23;;;6.90;99.90;;;;;;6277848;22;20047;-88
2022/09/28 06:41:51;;;;;;;61.70;10.77;;;6.90;99.90;;;;;;6252150;22;20015;-85
2022/09/28 06:44:17;;;;;;;56.85;11.10;;;6.90;99.90;;;;;;6278004;22;20039;-86
2022/09/28 06:46:42;;;;;;;38.90;9.88;;;7.00;99.90;;;;;;6250792;22;20345;-86
2022/09/28 06:49:08;;;;;;;59.45;11.23;;;7.00;99.90;;;;;;6278830;22;20022;-86
2022/09/28 06:51:35;;;;;;;247.85;20.00;;;7.10;99.90;;;;;;6279334;22;20012;-86
2022/09/28 06:54:01;;;;;;;201.52;16.95;;;7.10;99.90;;;;;;6277064;22;20019;-85
2022/09/28 06:56:27;;;;;;;199.77;14.93;;;7.30;99.90;;;;;;6279447;22;20014;-86
2022/09/28 06:58:53;;;;;;;98.88;16.65;;;7.20;99.90;;;;;;6278241;22;20081;-86
2022/09/28 07:01:18;;;;;;;123.85;15.10;;;7.20;99.90;;;;;;6277597;22;20016;-85
2022/09/28 07:03:44;;;;;;;216.50;16.23;;;7.20;99.90;;;;;;6277403;22;20038;-84
2022/09/28 07:06:11;;;;;;;110.70;12.45;;;7.30;99.90;;;;;;6276230;22;20012;-84
2022/09/28 07:08:37;;;;;;;157.57;14.48;;;7.30;99.90;;;;;;6278575;22;20460;-84
2022/09/28 07:11:07;;;;;;;80.25;13.30;;;7.30;99.90;;;;;;6278351;22;20625;-84
2022/09/28 07:13:33;;;;;;;300.20;21.10;;;7.40;99.90;;;;;;6276384;22;20063;-84
2022/09/28 07:15:58;;;;;;;175.88;13.93;;;7.40;99.90;;;;;;6278985;22;20303;-84
2022/09/28 07:18:25;;;;;;;142.60;11.15;;;7.50;99.90;;;;;;6276816;22;20016;-85
2022/09/28 07:20:51;;;;;;;98.90;11.57;;;7.50;99.90;;;;;;6275780;22;20015;-83
2022/09/28 07:23:17;;;;;;;127.93;17.75;;;7.50;99.90;;;;;;6252297;22;20023;-85
2022/09/28 07:25:46;;;;;;;190.50;19.92;;;7.60;99.90;;;;;;6279492;22;20016;-85
2022/09/28 07:28:12;;;;;;;76.30;10.38;;;7.60;99.90;;;;;;6278661;22;20012;-85
2022/09/28 07:30:38;;;;;;;76.15;12.90;;;7.70;99.90;;;;;;6277151;22;20459;-85
2022/09/28 07:33:06;;;;;;;215.82;17.10;;;7.80;99.90;;;;;;6279330;22;20066;-85
2022/09/28 07:35:35;;;;;;;162.40;14.25;;;7.90;99.90;;;;;;6278277;22;20027;-84
2022/09/28 07:38:03;;;;;;;108.47;11.60;;;7.90;99.90;;;;;;6280251;22;20104;-85
2022/09/28 07:43:19;;;;;;;90.93;14.40;;;8.00;99.90;;;;;;6278853;22;20016;-83
2022/09/28 07:45:46;;;;;;;97.97;12.35;;;8.10;99.90;;;;;;6280633;22;20047;-85
2022/09/28 07:48:16;;;;;;;86.88;11.50;;;8.20;99.90;;;;;;6278476;22;20018;-85
2022/09/28 07:50:52;;;;;;;48.47;10.98;;;8.30;99.90;;;;;;6278217;22;20012;-85
2022/09/28 07:53:20;;;;;;;53.08;10.15;;;8.30;99.90;;;;;;6278600;22;20008;-85
2022/09/28 07:55:52;;;;;;;51.92;9.07;;;8.40;99.90;;;;;;6277911;22;20071;-85
2022/09/28 07:58:19;;;;;;;49.60;9.27;;;8.40;99.90;;;;;;6280868;22;20070;-85
2022/09/28 08:00:47;;;;;;;118.80;11.70;;;8.40;99.90;;;;;;6277821;22;20494;-85
2022/09/28 08:03:16;;;;;;;150.52;12.60;;;8.40;99.90;;;;;;6279739;22;20008;-85
2022/09/28 08:05:42;;;;;;;244.50;16.98;;;8.50;99.90;;;;;;6277484;22;20084;-84
2022/09/28 08:08:09;;;;;;;60.47;11.40;;;8.60;99.90;;;;;;6278181;22;20365;-85
2022/09/28 08:10:36;;;;;;;56.85;11.77;;;8.70;99.90;;;;;;6278335;22;20011;-85
2022/09/28 08:13:02;;;;;;;30.42;14.48;;;8.80;99.90;;;;;;6280690;22;20019;-85
2022/09/28 08:15:35;;;;;;;55.97;10.40;;;8.90;99.90;;;;;;6280045;22;20011;-85
2022/09/28 08:18:03;;;;;;;52.53;9.25;;;8.90;99.90;;;;;;6278065;22;20030;-85
2022/09/28 08:23:14;;;;;;;34.60;9.30;;;9.10;99.90;;;;;;6279506;22;20019;-85
2022/09/28 08:25:47;;;;;;;33.95;8.48;;;9.30;99.90;;;;;;6280013;22;20039;-85
2022/09/28 08:28:14;;;;;;;21.88;7.18;;;9.50;99.90;;;;;;6277817;22;20034;-85
2022/09/28 08:30:40;;;;;;;14.45;6.68;;;9.40;99.90;;;;;;6277748;22;20332;-85
2022/09/28 08:33:06;;;;;;;12.82;7.07;;;9.30;99.90;;;;;;6277890;22;20076;-85
2022/09/28 08:35:32;;;;;;;26.20;7.68;;;9.30;99.90;;;;;;6277473;22;20016;-85
2022/09/28 08:37:59;;;;;;;12.40;6.63;;;9.30;99.90;;;;;;6252052;22;20015;-85
2022/09/28 08:40:25;;;;;;;12.13;6.97;;;9.30;99.90;;;;;;6251833;22;20012;-85
2022/09/28 08:43:05;;;;;;;10.80;6.93;;;9.30;99.90;;;;;;6251794;22;20375;-85
2022/09/28 08:45:35;;;;;;;10.45;6.55;;;9.40;99.90;;;;;;6277184;22;20030;-85
2022/09/28 08:51:13;;;;;;;10.85;7.10;;;9.50;99.90;;;;;;6278584;22;20023;-85
2022/09/28 08:53:47;;;;;;;11.25;6.55;;;9.60;99.90;;;;;;6251509;22;20134;-85
2022/09/28 08:56:17;;;;;;;;;;;9.60;99.90;;;;;;6277169;22;20026;-85
2022/09/28 08:58:47;;;;;;;11.57;6.63;;;9.70;99.90;;;;;;6277542;22;20363;-85
2022/09/28 09:01:17;;;;;;;12.85;6.90;;;10.00;99.90;;;;;;6279699;22;20012;-85
2022/09/28 09:03:46;;;;;;;8.70;6.13;;;10.00;99.90;;;;;;6276539;22;20021;-86
2022/09/28 09:06:53;;;;;;;9.23;5.85;;;10.20;99.90;;;;;;6252145;22;20019;-85
2022/09/28 09:09:28;;;;;;;10.75;7.20;;;10.40;99.90;;;;;;6160613;23;20486;-86
2022/09/28 09:12:07;;;;;;;10.60;7.35;;;10.50;99.90;;;;;;6160277;23;20021;-86
2022/09/28 09:14:58;;;;;;;9.75;5.95;;;10.60;99.90;;;;;;6186019;23;20021;-85
2022/09/28 09:18:04;;;;;;;9.93;6.40;;;10.60;99.90;;;;;;6160333;23;20017;-85
2022/09/28 09:20:44;;;;;;;10.00;6.15;;;10.60;99.90;;;;;;6117988;23;20045;-86
2022/09/28 09:23:30;;;;;;;10.13;6.43;;;10.60;99.90;;;;;;6185899;23;20020;-86
2022/09/28 09:26:39;;;;;;;9.80;6.65;;;10.70;99.90;;;;;;6159712;23;20021;-85
2022/09/28 09:29:28;;;;;;;7.90;5.40;;;10.90;99.90;;;;;;6096703;23;20037;-85
2022/09/28 09:32:20;;;;;;;8.60;5.93;;;11.30;99.90;;;;;;6072587;23;20023;-86
2022/09/28 09:35:00;;;;;;;10.45;5.13;;;11.40;99.90;;;;;;6072814;23;20061;-85
2022/09/28 09:37:57;;;;;;;8.27;4.85;;;11.50;99.90;;;;;;6070511;23;20024;-85
2022/09/28 09:40:31;;;;;;;10.60;6.88;;;11.60;99.90;;;;;;6094189;23;20077;-86
2022/09/28 09:43:11;;;;;;;29.08;20.77;;;11.80;99.90;;;;;;6095800;23;20135;-85
2022/09/28 09:46:13;;;;;;;10.65;7.03;;;11.90;99.90;;;;;;6135987;23;20327;-87
2022/09/28 09:48:49;;;;;;;19.77;13.80;;;12.00;99.90;;;;;;6163398;23;20013;-82
2022/09/28 09:51:20;;;;;;;8.77;5.95;;;12.00;99.90;;;;;;6161625;23;20013;-85
2022/09/28 09:53:58;;;;;;;10.95;6.55;;;12.00;99.90;;;;;;6211341;23;20051;-81
2022/09/28 09:56:42;;;;;;;8.38;5.05;;;12.10;99.90;;;;;;6209684;23;20025;-81
2022/09/28 09:59:15;;;;;;;12.53;5.93;;;12.10;99.90;;;;;;6197418;22;20019;-82
2022/09/28 10:01:41;;;;;;;11.68;8.25;;;12.20;99.90;;;;;;6245018;22;20321;-82
2022/09/28 10:04:18;;;;;;;19.63;14.75;;;12.20;99.90;;;;;;6273202;22;20049;-81
2022/09/28 10:06:44;;;;;;;10.65;5.38;;;12.50;99.90;;;;;;6271079;22;20026;-82
2022/09/28 10:09:19;;;;;;;43.80;28.52;;;12.40;99.90;;;;;;6271350;22;20015;-82
2022/09/28 10:11:49;;;;;;;10.48;6.00;;;12.50;99.90;;;;;;6270829;22;20353;-82
2022/09/28 10:14:23;;;;;;;7.68;4.97;;;12.70;99.90;;;;;;6271397;22;20449;-81
2022/09/28 10:16:52;;;;;;;7.68;4.22;;;12.90;99.90;;;;;;6270147;22;20311;-82
2022/09/28 10:19:24;;;;;;;8.32;3.97;;;13.00;99.90;;;;;;6271534;22;20022;-82
2022/09/28 10:21:53;;;;;;;6.95;3.60;;;13.20;99.90;;;;;;6272422;22;20483;-81
2022/09/28 10:24:35;;;;;;;7.07;4.30;;;13.40;99.90;;;;;;6272988;22;20012;-82
2022/09/28 10:27:17;;;;;;;7.53;4.43;;;13.40;99.90;;;;;;6271132;22;20333;-82
2022/09/28 10:29:53;;;;;;;14.05;8.77;;;13.50;99.90;;;;;;6271302;22;20007;-82
2022/09/28 10:32:25;;;;;;;6.90;2.83;;;13.60;99.90;;;;;;6270706;22;20214;-81
2022/09/28 10:35:21;;;;;;;5.55;3.50;;;13.90;99.90;;;;;;6272262;22;20081;-82
2022/09/28 10:37:54;;;;;;;11.18;3.05;;;14.00;99.90;;;;;;6268695;22;20480;-81
2022/09/28 10:40:28;;;;;;;4.22;2.20;;;14.10;99.90;;;;;;6272456;22;20016;-81
2022/09/28 10:43:24;;;;;;;4.63;2.40;;;14.10;99.90;;;;;;6270551;22;20028;-82
2022/09/28 10:46:04;;;;;;;3.88;1.80;;;14.10;99.90;;;;;;6243841;22;20011;-82
2022/09/28 10:48:44;;;;;;;4.78;2.20;;;14.20;99.90;;;;;;6270007;22;20024;-82
2022/09/28 10:51:10;;;;;;;3.67;1.98;;;14.30;99.90;;;;;;6272804;22;20095;-81
2022/09/28 10:53:37;;;;;;;3.78;2.00;;;14.40;99.90;;;;;;6272264;22;20055;-82
2022/09/28 10:56:20;;;;;;;4.13;1.60;;;14.70;99.90;;;;;;6271607;22;20094;-81
2022/09/28 10:58:46;;;;;;;3.67;1.67;;;14.40;99.90;;;;;;6245292;22;20088;-81
2022/09/28 11:01:24;;;;;;;5.70;1.80;;;14.60;99.90;;;;;;6270647;22;20023;-82
2022/09/28 11:03:58;;;;;;;2.83;1.38;;;14.30;99.90;;;;;;6268670;22;20058;-81
2022/09/28 11:06:35;;;;;;;5.85;1.67;;;14.30;99.90;;;;;;6270187;22;20019;-81
2022/09/28 11:09:19;;;;;;;4.25;1.58;;;14.10;99.90;;;;;;6269126;22;20019;-81
2022/09/28 11:11:44;;;;;;;3.15;1.48;;;14.00;99.90;;;;;;6271746;22;20015;-81
2022/09/28 11:14:37;;;;;;;4.38;1.58;;;13.90;99.90;;;;;;6272156;22;20138;-81
2022/09/28 11:17:28;;;;;;;5.35;1.90;;;14.00;99.90;;;;;;6271017;22;20437;-82
2022/09/28 11:19:59;;;;;;;5.03;1.30;;;14.30;99.90;;;;;;6275586;22;20023;-87
2022/09/28 11:22:31;;;;;;;3.53;1.25;;;14.40;99.90;;;;;;6277019;22;20045;-85
2022/09/28 11:25:15;;;;;;;4.03;1.23;;;14.60;99.90;;;;;;6277611;22;20069;-86
2022/09/28 11:27:41;;;;;;;4.53;1.50;;;14.60;99.90;;;;;;6277220;22;20018;-87
2022/09/28 11:30:41;;;;;;;4.68;1.50;;;14.70;99.90;;;;;;6278747;22;20012;-87
2022/09/28 11:33:41;;;;;;;4.82;1.08;;;14.70;99.90;;;;;;6252180;22;20023;-86
2022/09/28 11:36:13;;;;;;;3.33;1.20;;;14.60;99.90;;;;;;6249071;22;20016;-85
2022/09/28 11:38:44;;;;;;;1.80;0.50;;;14.50;99.90;;;;;;6274977;22;20051;-85
2022/09/28 11:41:22;;;;;;;3.00;1.27;;;14.50;99.90;;;;;;6275243;22;20015;-85
2022/09/28 11:44:15;;;;;;;1.25;0.50;;;14.60;99.90;;;;;;6274304;22;20061;-85
2022/09/28 11:47:02;;;;;;;2.30;0.63;;;14.90;99.90;;;;;;6276245;22;20019;-85
2022/09/28 11:49:36;;;;;;;3.25;0.52;;;15.20;99.90;;;;;;6274417;22;20012;-85
2022/09/28 11:52:11;;;;;;;0.95;0.50;;;15.30;99.90;;;;;;6274733;22;20007;-85
2022/09/28 11:54:43;;;;;;;2.03;0.80;;;15.30;99.90;;;;;;6276339;22;20444;-84
2022/09/28 11:57:16;;;;;;;2.80;1.10;;;15.40;99.90;;;;;;6273819;22;20364;-85
2022/09/28 12:00:00;;;;;;;1.30;0.63;;;15.60;99.90;;;;;;6271953;22;20016;-85
2022/09/28 12:02:35;;;;;;;1.73;0.50;;;15.80;99.90;;;;;;6268898;22;20019;-84
2022/09/28 12:05:21;;;;;;;2.83;1.33;;;15.90;99.90;;;;;;6272066;22;20086;-84
2022/09/28 12:07:55;;;;;;;1.83;0.90;;;15.90;99.90;;;;;;6270863;22;20019;-84
2022/09/28 12:10:47;;;;;;;1.50;0.52;;;15.90;99.90;;;;;;6270933;22;20048;-84
2022/09/28 12:13:21;;;;;;;3.03;0.70;;;15.80;99.90;;;;;;6271288;22;20014;-84
2022/09/28 12:15:53;;;;;;;;;;;15.80;99.90;;;;;;6270859;22;20016;-87
2022/09/28 12:18:41;;;;;;;2.35;0.90;;;15.70;99.90;;;;;;6270480;22;19964;-84
2022/09/28 12:21:12;;;;;;;2.65;1.30;;;15.60;99.90;;;;;;6249125;22;20095;-85
2022/09/28 12:23:42;;;;;;;2.22;0.47;;;15.50;99.90;;;;;;6272734;22;20083;-85
2022/09/28 12:26:33;;;;;;;2.05;0.80;;;15.50;99.90;;;;;;6269690;22;20069;-82
2022/09/28 12:29:05;;;;;;;2.08;0.68;;;15.40;99.90;;;;;;6270778;22;20008;-84
2022/09/28 12:31:51;;;;;;;1.52;0.80;;;15.30;99.90;;;;;;6272286;22;20015;-84
2022/09/28 12:34:17;;;;;;;1.73;0.60;;;15.20;99.90;;;;;;6271959;22;20433;-84
2022/09/28 12:36:59;;;;;;;2.08;0.50;;;15.20;99.90;;;;;;6271768;22;20053;-85
2022/09/28 12:39:50;;;;;;;2.13;0.50;;;15.20;99.90;;;;;;6272140;22;20012;-85
2022/09/28 12:42:38;;;;;;;1.40;0.68;;;15.20;99.90;;;;;;6271994;22;20030;-82
2022/09/28 12:45:16;;;;;;;2.83;0.80;;;15.30;99.90;;;;;;6270175;22;20106;-83
2022/09/28 12:48:14;;;;;;;1.02;0.50;;;15.20;99.90;;;;;;6271937;22;20050;-82
2022/09/28 12:50:46;;;;;;;1.80;0.63;;;15.10;99.90;;;;;;6248683;22;20019;-83
2022/09/28 12:53:22;;;;;;;3.88;0.80;;;15.10;99.90;;;;;;6272082;22;20087;-83
2022/09/28 12:55:55;;;;;;;3.35;0.80;;;15.00;99.90;;;;;;6269597;22;20070;-83
2022/09/28 12:58:35;;;;;;;8.20;1.67;;;14.80;99.90;;;;;;6270437;22;20016;-83
2022/09/28 13:01:20;;;;;;;19.67;8.45;;;14.70;99.90;;;;;;6271869;22;20016;-82
2022/09/28 13:04:27;;;;;;;5.47;1.05;;;14.60;99.90;;;;;;6272011;22;20302;-83
2022/09/28 13:07:07;;;;;;;3.15;1.13;;;14.40;99.90;;;;;;6177820;23;20013;-83
2022/09/28 13:09:50;;;;;;;4.32;1.02;;;14.40;99.90;;;;;;6152363;23;20013;-83
2022/09/28 13:12:47;;;;;;;2.45;0.70;;;14.30;99.90;;;;;;6153016;23;20332;-84
2022/09/28 13:15:35;;;;;;;1.38;0.47;;;14.30;99.90;;;;;;6177906;23;20462;-84
2022/09/28 13:18:08;;;;;;;1.35;0.50;;;14.20;99.90;;;;;;6152775;23;20541;-85
2022/09/28 13:21:01;;;;;;;1.95;0.60;;;14.20;99.90;;;;;;6177745;23;20024;-83
2022/09/28 13:23:38;;;;;;;4.90;0.70;;;14.20;99.90;;;;;;6152114;23;20013;-83